sensor_id;sensor_type;location;lat;lon;timestamp;temperature;humidity
528;DHT22;250;47.712;7.508;2022-12-16T00:01:06;0.80;40.50
528;DHT22;250;47.712;7.508;2022-12-16T00:03:33;0.80;41.00
528;DHT22;250;47.712;7.508;2022-12-16T00:06:00;0.70;41.20
528;DHT22;250;47.712;7.508;2022-12-16T00:08:31;0.60;41.50
528;DHT22;250;47.712;7.508;2022-12-16T00:10:59;0.60;41.80
528;DHT22;250;47.712;7.508;2022-12-16T00:13:29;0.50;41.70
528;DHT22;250;47.712;7.508;2022-12-16T00:15:56;0.50;42.50
528;DHT22;250;47.712;7.508;2022-12-16T00:18:25;0.40;42.40
528;DHT22;250;47.712;7.508;2022-12-16T00:20:53;0.50;42.20
528;DHT22;250;47.712;7.508;2022-12-16T00:23:20;0.40;42.00
528;DHT22;250;47.712;7.508;2022-12-16T00:25:48;0.40;42.50
528;DHT22;250;47.712;7.508;2022-12-16T00:28:16;0.40;42.20
528;DHT22;250;47.712;7.508;2022-12-16T00:30:48;0.40;42.70
528;DHT22;250;47.712;7.508;2022-12-16T00:33:15;0.40;42.70
528;DHT22;250;47.712;7.508;2022-12-16T00:35:44;0.30;43.20
528;DHT22;250;47.712;7.508;2022-12-16T00:38:12;0.40;43.20
528;DHT22;250;47.712;7.508;2022-12-16T00:40:39;0.40;43.30
528;DHT22;250;47.712;7.508;2022-12-16T00:43:06;0.40;43.40
528;DHT22;250;47.712;7.508;2022-12-16T00:45:34;0.50;43.50
528;DHT22;250;47.712;7.508;2022-12-16T00:48:01;0.50;43.30
528;DHT22;250;47.712;7.508;2022-12-16T00:50:28;0.50;43.30
528;DHT22;250;47.712;7.508;2022-12-16T00:52:56;0.60;42.70
528;DHT22;250;47.712;7.508;2022-12-16T00:55:23;0.70;41.90
528;DHT22;250;47.712;7.508;2022-12-16T00:57:51;0.60;41.90
528;DHT22;250;47.712;7.508;2022-12-16T01:00:18;0.60;41.90
528;DHT22;250;47.712;7.508;2022-12-16T01:02:48;0.60;41.80
528;DHT22;250;47.712;7.508;2022-12-16T01:05:19;0.60;41.80
528;DHT22;250;47.712;7.508;2022-12-16T01:07:46;0.60;41.80
528;DHT22;250;47.712;7.508;2022-12-16T01:10:15;0.70;41.40
528;DHT22;250;47.712;7.508;2022-12-16T01:12:42;0.70;41.90
528;DHT22;250;47.712;7.508;2022-12-16T01:15:09;0.70;41.90
528;DHT22;250;47.712;7.508;2022-12-16T01:17:40;0.70;41.90
528;DHT22;250;47.712;7.508;2022-12-16T01:20:08;0.80;41.30
528;DHT22;250;47.712;7.508;2022-12-16T01:22:36;0.80;41.00
528;DHT22;250;47.712;7.508;2022-12-16T01:25:03;0.80;41.00
528;DHT22;250;47.712;7.508;2022-12-16T01:27:32;0.70;41.60
528;DHT22;250;47.712;7.508;2022-12-16T01:29:59;0.70;41.40
528;DHT22;250;47.712;7.508;2022-12-16T01:32:27;0.70;41.50
528;DHT22;250;47.712;7.508;2022-12-16T01:34:54;0.70;41.90
528;DHT22;250;47.712;7.508;2022-12-16T01:37:22;0.80;41.40
528;DHT22;250;47.712;7.508;2022-12-16T01:39:49;0.80;41.70
528;DHT22;250;47.712;7.508;2022-12-16T01:42:19;0.80;41.20
528;DHT22;250;47.712;7.508;2022-12-16T01:44:49;0.80;41.40
528;DHT22;250;47.712;7.508;2022-12-16T01:47:19;0.70;41.80
528;DHT22;250;47.712;7.508;2022-12-16T01:49:50;0.70;41.60
528;DHT22;250;47.712;7.508;2022-12-16T01:52:21;0.70;40.70
528;DHT22;250;47.712;7.508;2022-12-16T01:54:52;0.50;40.90
528;DHT22;250;47.712;7.508;2022-12-16T01:57:25;0.50;41.20
528;DHT22;250;47.712;7.508;2022-12-16T01:59:55;0.50;41.10
528;DHT22;250;47.712;7.508;2022-12-16T02:02:23;0.50;40.90
528;DHT22;250;47.712;7.508;2022-12-16T02:04:50;0.50;41.20
528;DHT22;250;47.712;7.508;2022-12-16T02:07:34;0.50;41.20
528;DHT22;250;47.712;7.508;2022-12-16T02:10:01;0.50;41.20
528;DHT22;250;47.712;7.508;2022-12-16T02:12:35;0.50;41.70
528;DHT22;250;47.712;7.508;2022-12-16T02:15:27;0.50;41.70
528;DHT22;250;47.712;7.508;2022-12-16T02:18:03;0.50;41.00
528;DHT22;250;47.712;7.508;2022-12-16T02:20:56;0.50;40.90
528;DHT22;250;47.712;7.508;2022-12-16T02:23:55;0.50;40.80
528;DHT22;250;47.712;7.508;2022-12-16T02:26:52;0.60;40.60
528;DHT22;250;47.712;7.508;2022-12-16T02:32:51;0.50;41.00
528;DHT22;250;47.712;7.508;2022-12-16T02:35:27;0.60;41.20
528;DHT22;250;47.712;7.508;2022-12-16T02:38:09;0.60;40.30
528;DHT22;250;47.712;7.508;2022-12-16T02:40:43;0.50;40.30
528;DHT22;250;47.712;7.508;2022-12-16T02:43:16;0.50;40.90
528;DHT22;250;47.712;7.508;2022-12-16T02:45:47;0.50;41.00
528;DHT22;250;47.712;7.508;2022-12-16T02:48:16;0.40;41.20
528;DHT22;250;47.712;7.508;2022-12-16T02:50:46;0.50;41.20
528;DHT22;250;47.712;7.508;2022-12-16T02:53:16;0.40;41.20
528;DHT22;250;47.712;7.508;2022-12-16T02:55:51;0.50;40.70
528;DHT22;250;47.712;7.508;2022-12-16T02:58:26;0.50;40.20
528;DHT22;250;47.712;7.508;2022-12-16T03:01:02;0.40;40.30
528;DHT22;250;47.712;7.508;2022-12-16T03:03:38;0.30;41.30
528;DHT22;250;47.712;7.508;2022-12-16T03:06:10;0.30;41.60
528;DHT22;250;47.712;7.508;2022-12-16T03:08:40;0.40;41.70
528;DHT22;250;47.712;7.508;2022-12-16T03:11:10;0.50;41.70
528;DHT22;250;47.712;7.508;2022-12-16T03:13:40;0.50;41.20
528;DHT22;250;47.712;7.508;2022-12-16T03:16:10;0.50;41.10
528;DHT22;250;47.712;7.508;2022-12-16T03:18:43;0.50;41.70
528;DHT22;250;47.712;7.508;2022-12-16T03:21:11;0.40;43.20
528;DHT22;250;47.712;7.508;2022-12-16T03:23:44;0.40;43.20
528;DHT22;250;47.712;7.508;2022-12-16T03:26:16;0.30;43.20
528;DHT22;250;47.712;7.508;2022-12-16T03:28:47;0.30;43.40
528;DHT22;250;47.712;7.508;2022-12-16T03:31:23;0.40;42.40
528;DHT22;250;47.712;7.508;2022-12-16T03:33:57;0.50;43.70
528;DHT22;250;47.712;7.508;2022-12-16T03:36:32;0.50;44.00
528;DHT22;250;47.712;7.508;2022-12-16T03:39:02;0.60;42.50
528;DHT22;250;47.712;7.508;2022-12-16T03:41:31;0.60;41.90
528;DHT22;250;47.712;7.508;2022-12-16T03:43:58;0.60;41.30
528;DHT22;250;47.712;7.508;2022-12-16T03:46:26;0.50;41.20
528;DHT22;250;47.712;7.508;2022-12-16T03:48:54;0.50;40.80
528;DHT22;250;47.712;7.508;2022-12-16T03:51:22;0.50;41.40
528;DHT22;250;47.712;7.508;2022-12-16T03:53:49;0.50;41.00
528;DHT22;250;47.712;7.508;2022-12-16T03:56:16;0.60;41.40
528;DHT22;250;47.712;7.508;2022-12-16T03:58:43;0.50;41.80
528;DHT22;250;47.712;7.508;2022-12-16T04:01:12;0.60;41.90
528;DHT22;250;47.712;7.508;2022-12-16T04:03:39;0.60;41.50
528;DHT22;250;47.712;7.508;2022-12-16T04:06:09;0.60;41.20
528;DHT22;250;47.712;7.508;2022-12-16T04:08:36;0.60;41.20
528;DHT22;250;47.712;7.508;2022-12-16T04:11:03;0.60;40.80
528;DHT22;250;47.712;7.508;2022-12-16T04:13:48;0.50;41.00
528;DHT22;250;47.712;7.508;2022-12-16T04:16:32;0.50;41.80
528;DHT22;250;47.712;7.508;2022-12-16T04:19:21;0.50;41.10
528;DHT22;250;47.712;7.508;2022-12-16T04:22:23;0.50;41.70
528;DHT22;250;47.712;7.508;2022-12-16T04:25:11;0.40;42.60
528;DHT22;250;47.712;7.508;2022-12-16T04:27:39;0.40;43.30
528;DHT22;250;47.712;7.508;2022-12-16T04:30:12;0.30;43.00
528;DHT22;250;47.712;7.508;2022-12-16T04:32:46;0.40;42.50
528;DHT22;250;47.712;7.508;2022-12-16T04:35:32;0.50;42.80
528;DHT22;250;47.712;7.508;2022-12-16T04:38:17;0.50;42.20
528;DHT22;250;47.712;7.508;2022-12-16T04:41:02;0.40;42.80
528;DHT22;250;47.712;7.508;2022-12-16T04:43:46;0.40;42.60
528;DHT22;250;47.712;7.508;2022-12-16T04:46:31;0.50;41.80
528;DHT22;250;47.712;7.508;2022-12-16T04:49:15;0.50;41.80
528;DHT22;250;47.712;7.508;2022-12-16T04:52:00;0.60;41.80
528;DHT22;250;47.712;7.508;2022-12-16T04:54:45;0.60;41.90
528;DHT22;250;47.712;7.508;2022-12-16T04:57:30;0.60;41.20
528;DHT22;250;47.712;7.508;2022-12-16T05:00:14;0.60;41.20
528;DHT22;250;47.712;7.508;2022-12-16T05:02:59;0.60;40.90
528;DHT22;250;47.712;7.508;2022-12-16T05:05:43;0.60;40.70
528;DHT22;250;47.712;7.508;2022-12-16T05:08:28;0.60;40.60
528;DHT22;250;47.712;7.508;2022-12-16T05:11:13;0.60;40.80
528;DHT22;250;47.712;7.508;2022-12-16T05:13:58;0.60;40.40
528;DHT22;250;47.712;7.508;2022-12-16T05:16:42;0.60;40.60
528;DHT22;250;47.712;7.508;2022-12-16T05:19:27;0.60;40.10
528;DHT22;250;47.712;7.508;2022-12-16T05:22:11;0.50;39.90
528;DHT22;250;47.712;7.508;2022-12-16T05:24:55;0.50;40.40
528;DHT22;250;47.712;7.508;2022-12-16T05:27:41;0.50;40.50
528;DHT22;250;47.712;7.508;2022-12-16T05:30:40;0.50;40.50
528;DHT22;250;47.712;7.508;2022-12-16T05:33:25;0.50;40.30
528;DHT22;250;47.712;7.508;2022-12-16T05:36:09;0.40;40.30
528;DHT22;250;47.712;7.508;2022-12-16T05:38:55;0.40;40.20
528;DHT22;250;47.712;7.508;2022-12-16T05:41:39;0.30;40.50
528;DHT22;250;47.712;7.508;2022-12-16T05:44:25;0.40;40.00
528;DHT22;250;47.712;7.508;2022-12-16T05:47:10;0.40;40.00
528;DHT22;250;47.712;7.508;2022-12-16T05:49:54;0.50;40.10
528;DHT22;250;47.712;7.508;2022-12-16T05:52:48;0.50;40.20
528;DHT22;250;47.712;7.508;2022-12-16T05:55:32;0.60;39.50
528;DHT22;250;47.712;7.508;2022-12-16T05:58:17;0.60;38.80
528;DHT22;250;47.712;7.508;2022-12-16T06:01:03;0.60;38.60
528;DHT22;250;47.712;7.508;2022-12-16T06:03:47;0.50;39.00
528;DHT22;250;47.712;7.508;2022-12-16T06:06:32;0.50;39.00
528;DHT22;250;47.712;7.508;2022-12-16T06:09:16;0.60;38.80
528;DHT22;250;47.712;7.508;2022-12-16T06:12:06;0.60;38.70
528;DHT22;250;47.712;7.508;2022-12-16T06:14:51;0.60;38.80
528;DHT22;250;47.712;7.508;2022-12-16T06:17:36;0.60;38.90
528;DHT22;250;47.712;7.508;2022-12-16T06:20:24;0.70;39.10
528;DHT22;250;47.712;7.508;2022-12-16T06:23:08;0.70;38.40
528;DHT22;250;47.712;7.508;2022-12-16T06:25:53;0.70;38.70
528;DHT22;250;47.712;7.508;2022-12-16T06:28:37;0.60;38.40
528;DHT22;250;47.712;7.508;2022-12-16T06:31:22;0.70;38.60
528;DHT22;250;47.712;7.508;2022-12-16T06:34:08;0.70;38.50
528;DHT22;250;47.712;7.508;2022-12-16T06:36:52;0.70;38.30
528;DHT22;250;47.712;7.508;2022-12-16T06:39:36;0.70;37.80
528;DHT22;250;47.712;7.508;2022-12-16T06:42:21;0.70;37.90
528;DHT22;250;47.712;7.508;2022-12-16T06:45:06;0.70;38.30
528;DHT22;250;47.712;7.508;2022-12-16T06:47:50;0.70;38.60
528;DHT22;250;47.712;7.508;2022-12-16T06:50:36;0.60;38.50
528;DHT22;250;47.712;7.508;2022-12-16T06:53:21;0.70;38.70
528;DHT22;250;47.712;7.508;2022-12-16T06:56:06;0.60;38.90
528;DHT22;250;47.712;7.508;2022-12-16T06:58:52;0.60;39.10
528;DHT22;250;47.712;7.508;2022-12-16T07:01:36;0.70;39.60
528;DHT22;250;47.712;7.508;2022-12-16T07:04:21;0.70;39.60
528;DHT22;250;47.712;7.508;2022-12-16T07:07:06;0.80;39.20
528;DHT22;250;47.712;7.508;2022-12-16T07:09:51;0.80;39.10
528;DHT22;250;47.712;7.508;2022-12-16T07:12:35;0.90;38.70
528;DHT22;250;47.712;7.508;2022-12-16T07:15:20;0.90;38.20
528;DHT22;250;47.712;7.508;2022-12-16T07:18:04;0.90;38.20
528;DHT22;250;47.712;7.508;2022-12-16T07:20:49;0.90;38.50
528;DHT22;250;47.712;7.508;2022-12-16T07:23:35;0.80;39.20
528;DHT22;250;47.712;7.508;2022-12-16T07:26:19;0.80;39.20
528;DHT22;250;47.712;7.508;2022-12-16T07:29:18;0.80;39.40
528;DHT22;250;47.712;7.508;2022-12-16T07:32:02;0.80;39.60
528;DHT22;250;47.712;7.508;2022-12-16T07:34:47;0.80;39.20
528;DHT22;250;47.712;7.508;2022-12-16T07:37:31;0.80;39.60
528;DHT22;250;47.712;7.508;2022-12-16T07:40:17;0.80;39.60
528;DHT22;250;47.712;7.508;2022-12-16T07:43:02;0.80;39.80
528;DHT22;250;47.712;7.508;2022-12-16T07:45:46;0.90;39.30
528;DHT22;250;47.712;7.508;2022-12-16T07:48:30;0.90;39.60
528;DHT22;250;47.712;7.508;2022-12-16T07:51:15;0.90;39.20
528;DHT22;250;47.712;7.508;2022-12-16T07:54:00;0.90;38.80
528;DHT22;250;47.712;7.508;2022-12-16T07:56:45;0.80;39.30
528;DHT22;250;47.712;7.508;2022-12-16T07:59:29;0.70;39.20
528;DHT22;250;47.712;7.508;2022-12-16T08:02:16;0.70;39.10
528;DHT22;250;47.712;7.508;2022-12-16T08:05:00;0.80;38.80
528;DHT22;250;47.712;7.508;2022-12-16T08:07:45;0.70;38.70
528;DHT22;250;47.712;7.508;2022-12-16T08:10:29;0.70;39.50
528;DHT22;250;47.712;7.508;2022-12-16T08:13:15;0.70;39.20
528;DHT22;250;47.712;7.508;2022-12-16T08:15:59;0.70;39.00
528;DHT22;250;47.712;7.508;2022-12-16T08:18:44;0.70;38.50
528;DHT22;250;47.712;7.508;2022-12-16T08:21:28;0.70;37.80
528;DHT22;250;47.712;7.508;2022-12-16T08:24:13;0.70;38.50
528;DHT22;250;47.712;7.508;2022-12-16T08:26:57;0.70;38.70
528;DHT22;250;47.712;7.508;2022-12-16T08:29:43;0.80;38.50
528;DHT22;250;47.712;7.508;2022-12-16T08:32:28;0.80;38.20
528;DHT22;250;47.712;7.508;2022-12-16T08:35:12;0.80;37.70
528;DHT22;250;47.712;7.508;2022-12-16T08:37:56;0.90;37.40
528;DHT22;250;47.712;7.508;2022-12-16T08:40:42;0.90;37.40
528;DHT22;250;47.712;7.508;2022-12-16T08:43:30;0.80;36.80
528;DHT22;250;47.712;7.508;2022-12-16T08:46:16;0.80;37.30
528;DHT22;250;47.712;7.508;2022-12-16T08:49:01;0.80;36.40
528;DHT22;250;47.712;7.508;2022-12-16T08:51:45;0.90;36.10
528;DHT22;250;47.712;7.508;2022-12-16T08:54:30;0.80;35.90
528;DHT22;250;47.712;7.508;2022-12-16T08:57:14;0.80;36.40
528;DHT22;250;47.712;7.508;2022-12-16T08:59:59;0.80;35.80
528;DHT22;250;47.712;7.508;2022-12-16T09:02:45;0.90;36.00
528;DHT22;250;47.712;7.508;2022-12-16T09:05:29;0.90;35.90
528;DHT22;250;47.712;7.508;2022-12-16T09:08:14;1.00;35.40
528;DHT22;250;47.712;7.508;2022-12-16T09:11:00;1.00;35.60
528;DHT22;250;47.712;7.508;2022-12-16T09:13:45;0.90;35.50
528;DHT22;250;47.712;7.508;2022-12-16T09:16:31;0.90;35.70
528;DHT22;250;47.712;7.508;2022-12-16T09:19:17;1.00;36.10
528;DHT22;250;47.712;7.508;2022-12-16T09:22:02;1.00;35.50
528;DHT22;250;47.712;7.508;2022-12-16T09:24:46;1.00;35.30
528;DHT22;250;47.712;7.508;2022-12-16T09:27:31;1.10;35.10
528;DHT22;250;47.712;7.508;2022-12-16T09:30:15;1.10;34.00
528;DHT22;250;47.712;7.508;2022-12-16T09:33:00;1.20;34.10
528;DHT22;250;47.712;7.508;2022-12-16T09:35:46;1.20;33.60
528;DHT22;250;47.712;7.508;2022-12-16T09:38:31;1.20;33.00
528;DHT22;250;47.712;7.508;2022-12-16T09:41:39;1.00;33.90
